Time;durP1;ratioP1;P1;durP2;ratioP2;P2;SDS_P1;SDS_P2;PMS_P1;PMS_P2;Temp;Humidity;BMP_temperature;BMP_pressure;BME280_temperature;BME280_humidity;BME280_pressure;Samples;Min_cycle;Max_cycle;Signal;HPM_P1;HPM_P2
2023/08/22 00:02:26;;;;;;;8.05;7.25;;;;;;;;;;4445164;32;317241;-81
2023/08/22 00:04:53;;;;;;;8.82;7.65;;;;;;;;;;4446948;32;317098;-82
2023/08/22 00:07:20;;;;;;;8.27;7.43;;;;;;;;;;4459247;32;316560;-82
2023/08/22 00:09:46;;;;;;;8.82;7.80;;;;;;;;;;4450593;32;317252;-81
2023/08/22 00:12:13;;;;;;;10.27;7.10;;;;;;;;;;4459861;32;317281;-81
2023/08/22 00:14:41;;;;;;;11.93;8.13;;;;;;;;;;4448944;32;318302;-81
2023/08/22 00:17:10;;;;;;;10.35;7.87;;;;;;;;;;4460384;32;318453;-81
2023/08/22 00:19:37;;;;;;;10.90;8.00;;;;;;;;;;4450211;32;318452;-81
2023/08/22 00:22:04;;;;;;;10.95;7.97;;;;;;;;;;4457254;32;318095;-82
2023/08/22 00:24:32;;;;;;;10.70;8.63;;;;;;;;;;4444736;32;318256;-82
2023/08/22 00:26:59;;;;;;;9.50;8.07;;;;;;;;;;4431471;32;417624;-82
2023/08/22 00:29:26;;;;;;;9.73;7.57;;;;;;;;;;4447158;32;317288;-82
2023/08/22 00:31:54;;;;;;;11.48;8.07;;;;;;;;;;4434957;32;317567;-82
2023/08/22 00:34:21;;;;;;;10.88;7.53;;;;;;;;;;4436311;32;318173;-82
2023/08/22 00:36:47;;;;;;;9.18;8.27;;;;;;;;;;4449712;32;318223;-81
2023/08/22 00:39:14;;;;;;;8.77;7.82;;;;;;;;;;4439957;32;317192;-82
2023/08/22 00:41:41;;;;;;;9.68;7.85;;;;;;;;;;4446292;32;317413;-82
2023/08/22 00:44:06;;;;;;;15.35;7.82;;;;;;;;;;4448179;32;317394;-82
2023/08/22 00:46:33;;;;;;;8.15;7.32;;;;;;;;;;4438098;32;318574;-82
2023/08/22 00:49:03;;;;;;;10.35;8.05;;;;;;;;;;4459457;32;317559;-82
2023/08/22 00:51:30;;;;;;;11.80;7.90;;;;;;;;;;4453171;32;318236;-83
2023/08/22 00:53:57;;;;;;;10.65;8.38;;;;;;;;;;4461659;32;318003;-82
2023/08/22 00:56:24;;;;;;;10.32;8.27;;;;;;;;;;4451401;32;318437;-82
2023/08/22 00:58:51;;;;;;;9.98;7.97;;;;;;;;;;4463288;32;317744;-82
2023/08/22 01:01:18;;;;;;;12.98;8.73;;;;;;;;;;4452214;32;317085;-82
2023/08/22 01:03:45;;;;;;;9.82;8.65;;;;;;;;;;4463061;32;318107;-82
2023/08/22 01:06:24;;;;;;;8.13;7.43;;;;;;;;;;4438748;32;317616;-80
2023/08/22 01:08:57;;;;;;;12.48;8.15;;;;;;;;;;4447733;32;317225;-81
2023/08/22 01:11:30;;;;;;;8.52;7.72;;;;;;;;;;4437222;32;318029;-80
2023/08/22 01:13:58;;;;;;;10.27;8.57;;;;;;;;;;4447564;32;316944;-81
2023/08/22 01:16:26;;;;;;;8.55;7.72;;;;;;;;;;4437332;32;318593;-80
2023/08/22 01:18:53;;;;;;;13.00;8.90;;;;;;;;;;4446452;32;317673;-81
2023/08/22 01:21:22;;;;;;;12.63;9.13;;;;;;;;;;4437234;32;318395;-81
2023/08/22 01:23:51;;;;;;;9.27;7.95;;;;;;;;;;4447298;32;317889;-81
2023/08/22 01:26:17;;;;;;;12.25;8.05;;;;;;;;;;4436576;32;316523;-81
2023/08/22 01:28:47;;;;;;;10.98;8.43;;;;;;;;;;4447078;32;317638;-82
2023/08/22 01:31:21;;;;;;;10.25;8.93;;;;;;;;;;4436890;32;318062;-82
2023/08/22 01:33:53;;;;;;;9.75;8.13;;;;;;;;;;4447319;32;318433;-83
2023/08/22 01:36:21;;;;;;;10.52;8.85;;;;;;;;;;4437181;32;317644;-81
2023/08/22 01:38:50;;;;;;;14.10;8.77;;;;;;;;;;4448214;32;318039;-81
2023/08/22 01:41:18;;;;;;;13.55;8.13;;;;;;;;;;4451476;32;346717;-80
2023/08/22 01:43:45;;;;;;;10.18;8.80;;;;;;;;;;4462514;32;318200;-79
2023/08/22 01:46:12;;;;;;;9.68;8.25;;;;;;;;;;4451316;32;317521;-80
2023/08/22 01:48:39;;;;;;;11.35;7.80;;;;;;;;;;4460047;32;354700;-80
2023/08/22 01:51:06;;;;;;;10.07;8.98;;;;;;;;;;4462392;32;318348;-80
2023/08/22 01:53:33;;;;;;;11.25;8.80;;;;;;;;;;4451013;32;324069;-80
2023/08/22 01:56:00;;;;;;;11.25;9.02;;;;;;;;;;4450881;32;318483;-81
2023/08/22 01:58:28;;;;;;;9.68;8.77;;;;;;;;;;4436886;32;318320;-82
2023/08/22 02:00:55;;;;;;;12.50;8.98;;;;;;;;;;4445776;32;317691;-82
2023/08/22 02:03:22;;;;;;;14.03;8.67;;;;;;;;;;4435345;32;336896;-81
2023/08/22 02:05:48;;;;;;;10.20;8.23;;;;;;;;;;4446698;32;318152;-81
2023/08/22 02:08:15;;;;;;;10.48;8.80;;;;;;;;;;4436536;32;317584;-81
2023/08/22 02:10:42;;;;;;;9.35;8.38;;;;;;;;;;4444976;32;317555;-84
2023/08/22 02:13:09;;;;;;;10.07;7.97;;;;;;;;;;4444606;32;350896;-80
2023/08/22 02:15:37;;;;;;;11.85;8.25;;;;;;;;;;4433765;32;418932;-80
2023/08/22 02:18:04;;;;;;;9.77;8.75;;;;;;;;;;4446754;32;318217;-79
2023/08/22 02:20:31;;;;;;;8.75;7.87;;;;;;;;;;4435386;32;317677;-79
2023/08/22 02:22:58;;;;;;;10.07;9.07;;;;;;;;;;4445388;32;317212;-80
2023/08/22 02:25:25;;;;;;;9.07;8.10;;;;;;;;;;4434908;32;318331;-81
2023/08/22 02:27:51;;;;;;;10.85;8.35;;;;;;;;;;4446322;32;317422;-80
2023/08/22 02:30:18;;;;;;;9.10;8.25;;;;;;;;;;4436531;32;318422;-81
2023/08/22 02:32:47;;;;;;;10.50;8.70;;;;;;;;;;4444646;32;317464;-81
2023/08/22 02:35:14;;;;;;;16.15;9.07;;;;;;;;;;4435295;32;318289;-81
2023/08/22 02:37:41;;;;;;;9.98;8.30;;;;;;;;;;4445267;32;318225;-81
2023/08/22 02:40:09;;;;;;;11.25;8.82;;;;;;;;;;4444796;32;317576;-81
2023/08/22 02:42:36;;;;;;;15.05;8.68;;;;;;;;;;4434063;32;418131;-81
2023/08/22 02:45:07;;;;;;;9.38;8.48;;;;;;;;;;4446259;32;317534;-81
2023/08/22 02:47:34;;;;;;;10.43;9.13;;;;;;;;;;4436509;32;316841;-82
2023/08/22 02:50:02;;;;;;;12.40;8.85;;;;;;;;;;4445336;32;318991;-82
2023/08/22 02:52:29;;;;;;;13.70;8.73;;;;;;;;;;4434730;32;318748;-81
2023/08/22 02:54:56;;;;;;;10.07;9.02;;;;;;;;;;4445276;32;320339;-82
2023/08/22 02:57:22;;;;;;;11.52;8.95;;;;;;;;;;4435868;32;318657;-82
2023/08/22 02:59:49;;;;;;;12.07;9.43;;;;;;;;;;4444785;32;318423;-82
2023/08/22 03:02:16;;;;;;;13.13;8.75;;;;;;;;;;4434723;32;339991;-81
2023/08/22 03:04:42;;;;;;;12.55;9.25;;;;;;;;;;4446449;32;318672;-80
2023/08/22 03:07:10;;;;;;;12.30;8.82;;;;;;;;;;4445715;32;318683;-81
2023/08/22 03:09:38;;;;;;;10.93;9.70;;;;;;;;;;4432530;32;419130;-82
2023/08/22 03:12:05;;;;;;;12.13;8.90;;;;;;;;;;4445360;32;318011;-81
2023/08/22 03:14:32;;;;;;;10.68;9.30;;;;;;;;;;4435618;32;318277;-81
2023/08/22 03:16:59;;;;;;;10.27;8.32;;;;;;;;;;4444557;32;318415;-81
2023/08/22 03:19:26;;;;;;;9.90;8.83;;;;;;;;;;4433504;32;345151;-81
2023/08/22 03:21:53;;;;;;;12.05;9.30;;;;;;;;;;4445092;32;317304;-81
2023/08/22 03:24:21;;;;;;;13.13;8.82;;;;;;;;;;4434485;32;318018;-82
2023/08/22 03:26:47;;;;;;;10.70;8.38;;;;;;;;;;4445393;32;318168;-81
2023/08/22 03:29:14;;;;;;;12.88;9.30;;;;;;;;;;4434196;32;318312;-82
2023/08/22 03:31:41;;;;;;;10.05;8.90;;;;;;;;;;4448941;32;318249;-82
2023/08/22 03:34:07;;;;;;;9.55;8.48;;;;;;;;;;4460481;32;318673;-82
2023/08/22 03:36:34;;;;;;;15.85;10.70;;;;;;;;;;4449136;32;317242;-82
2023/08/22 03:39:01;;;;;;;17.27;10.05;;;;;;;;;;4459010;32;319691;-80
2023/08/22 03:41:29;;;;;;;12.00;9.73;;;;;;;;;;4449768;32;319718;-81
2023/08/22 03:43:56;;;;;;;14.00;9.50;;;;;;;;;;4460236;32;318923;-82
2023/08/22 03:46:22;;;;;;;10.80;9.70;;;;;;;;;;4450407;32;318459;-81
2023/08/22 03:48:49;;;;;;;10.80;9.70;;;;;;;;;;4459028;32;318115;-83
2023/08/22 03:51:16;;;;;;;11.00;9.90;;;;;;;;;;4449106;32;318192;-82
2023/08/22 03:53:42;;;;;;;15.13;9.20;;;;;;;;;;4460258;32;318286;-82
2023/08/22 03:56:09;;;;;;;16.00;11.15;;;;;;;;;;4447514;32;318120;-82
2023/08/22 03:58:37;;;;;;;12.70;9.23;;;;;;;;;;4430784;32;420098;-82
2023/08/22 04:01:04;;;;;;;12.57;8.98;;;;;;;;;;4444590;32;318197;-82
2023/08/22 04:03:32;;;;;;;14.38;10.85;;;;;;;;;;4433921;32;318100;-82
2023/08/22 04:05:59;;;;;;;14.73;10.32;;;;;;;;;;4445030;32;319425;-81
2023/08/22 04:08:26;;;;;;;18.12;10.05;;;;;;;;;;4434491;32;319326;-82
2023/08/22 04:10:53;;;;;;;17.20;9.23;;;;;;;;;;4443574;32;319278;-82
2023/08/22 04:13:20;;;;;;;17.83;10.45;;;;;;;;;;4433705;32;318482;-82
2023/08/22 04:15:51;;;;;;;14.95;10.23;;;;;;;;;;4443660;32;318720;-82
2023/08/22 04:18:18;;;;;;;15.45;11.38;;;;;;;;;;4434824;32;319101;-82
2023/08/22 04:20:44;;;;;;;17.73;12.43;;;;;;;;;;4444687;32;319360;-82
2023/08/22 04:23:11;;;;;;;20.90;11.52;;;;;;;;;;4433542;32;319350;-83
2023/08/22 04:25:38;;;;;;;19.70;10.95;;;;;;;;;;4443187;32;319732;-81
2023/08/22 04:28:05;;;;;;;19.87;11.07;;;;;;;;;;4444618;32;319234;-81
2023/08/22 04:30:32;;;;;;;20.62;12.52;;;;;;;;;;4433717;32;319731;-81
2023/08/22 04:33:00;;;;;;;21.60;11.05;;;;;;;;;;4444890;32;319875;-81
2023/08/22 04:35:26;;;;;;;22.13;11.23;;;;;;;;;;4434514;32;318961;-80
2023/08/22 04:37:53;;;;;;;16.77;11.12;;;;;;;;;;4442500;32;319689;-81
2023/08/22 04:40:20;;;;;;;14.63;10.57;;;;;;;;;;4433104;32;319535;-81
2023/08/22 04:42:47;;;;;;;12.52;10.30;;;;;;;;;;4444804;32;318420;-81
2023/08/22 04:45:13;;;;;;;14.43;10.45;;;;;;;;;;4434713;32;318696;-82
2023/08/22 04:47:40;;;;;;;12.77;10.40;;;;;;;;;;4444676;32;319118;-81
2023/08/22 04:50:09;;;;;;;14.70;9.98;;;;;;;;;;4444408;32;319718;-82
2023/08/22 04:52:36;;;;;;;15.60;10.57;;;;;;;;;;4432256;32;371211;-82
2023/08/22 04:55:04;;;;;;;16.23;10.68;;;;;;;;;;4444012;32;319291;-81
2023/08/22 04:57:32;;;;;;;14.27;10.75;;;;;;;;;;4434288;32;319341;-82
2023/08/22 04:59:59;;;;;;;19.62;10.43;;;;;;;;;;4444093;32;319285;-82
2023/08/22 05:02:26;;;;;;;17.15;10.25;;;;;;;;;;4426732;32;318612;-82
2023/08/22 05:04:53;;;;;;;12.95;10.88;;;;;;;;;;4444083;32;319330;-81
2023/08/22 05:07:21;;;;;;;12.20;9.82;;;;;;;;;;4434423;32;319833;-81
2023/08/22 05:09:47;;;;;;;15.82;11.77;;;;;;;;;;4430119;32;318303;-82
2023/08/22 05:12:14;;;;;;;19.00;12.32;;;;;;;;;;4428479;32;319343;-82
2023/08/22 05:14:41;;;;;;;23.50;12.10;;;;;;;;;;4446034;32;319466;-81
2023/08/22 05:17:08;;;;;;;19.80;12.30;;;;;;;;;;4446914;32;319260;-81
2023/08/22 05:19:34;;;;;;;18.37;12.73;;;;;;;;;;4436722;32;319602;-81
2023/08/22 05:22:01;;;;;;;18.58;11.93;;;;;;;;;;4445312;32;319248;-81
2023/08/22 05:24:29;;;;;;;20.00;11.02;;;;;;;;;;4435625;32;319742;-82
2023/08/22 05:26:56;;;;;;;17.20;10.85;;;;;;;;;;4446534;32;319304;-81
2023/08/22 05:29:24;;;;;;;19.73;11.75;;;;;;;;;;4436464;32;319043;-81
2023/08/22 05:31:50;;;;;;;22.33;11.57;;;;;;;;;;4446562;32;319479;-82
2023/08/22 05:34:17;;;;;;;22.95;10.98;;;;;;;;;;4438099;32;319131;-80
2023/08/22 05:36:44;;;;;;;14.52;11.90;;;;;;;;;;4445310;32;319309;-80
2023/08/22 05:39:11;;;;;;;14.00;11.55;;;;;;;;;;4434716;32;319330;-81
2023/08/22 05:41:39;;;;;;;21.25;11.02;;;;;;;;;;4444990;32;319227;-80
2023/08/22 05:44:06;;;;;;;21.15;10.93;;;;;;;;;;4445106;32;319346;-80
2023/08/22 05:46:33;;;;;;;23.15;12.25;;;;;;;;;;4435351;32;319808;-81
2023/08/22 05:49:00;;;;;;;28.75;12.27;;;;;;;;;;4446237;32;319099;-81
2023/08/22 05:51:26;;;;;;;21.30;12.15;;;;;;;;;;4436290;32;319351;-82
2023/08/22 05:53:53;;;;;;;25.33;12.85;;;;;;;;;;4444788;32;319405;-80
2023/08/22 05:56:20;;;;;;;21.98;11.98;;;;;;;;;;4439093;32;337007;-80
2023/08/22 05:58:48;;;;;;;21.80;12.73;;;;;;;;;;4446156;32;319622;-80
2023/08/22 06:01:15;;;;;;;21.45;12.88;;;;;;;;;;4436502;32;319663;-81
2023/08/22 06:03:43;;;;;;;19.40;12.13;;;;;;;;;;4445746;32;318586;-81
2023/08/22 06:06:10;;;;;;;13.45;11.38;;;;;;;;;;4445018;32;342524;-81
2023/08/22 06:08:37;;;;;;;16.52;11.80;;;;;;;;;;4418093;32;418466;-81
2023/08/22 06:11:03;;;;;;;13.75;11.82;;;;;;;;;;4445815;32;319260;-82
2023/08/22 06:13:30;;;;;;;18.87;12.05;;;;;;;;;;4434727;32;319488;-82
2023/08/22 06:15:58;;;;;;;16.40;11.27;;;;;;;;;;4446266;32;319551;-82
2023/08/22 06:18:25;;;;;;;13.87;11.20;;;;;;;;;;4434259;32;325684;-82
2023/08/22 06:20:51;;;;;;;13.90;10.70;;;;;;;;;;4445136;32;318815;-82
2023/08/22 06:23:18;;;;;;;17.10;11.12;;;;;;;;;;4434143;32;319315;-82
2023/08/22 06:25:47;;;;;;;15.15;10.50;;;;;;;;;;4444248;32;319502;-82
2023/08/22 06:28:14;;;;;;;17.45;10.75;;;;;;;;;;4434503;32;319348;-82
2023/08/22 06:30:41;;;;;;;13.40;10.43;;;;;;;;;;4445049;32;350083;-82
2023/08/22 06:33:09;;;;;;;13.57;12.18;;;;;;;;;;4444915;32;319371;-82
2023/08/22 06:35:36;;;;;;;13.30;10.38;;;;;;;;;;4432665;32;419841;-82
2023/08/22 06:38:02;;;;;;;13.73;10.25;;;;;;;;;;4445766;32;319312;-82
2023/08/22 06:40:29;;;;;;;13.60;10.50;;;;;;;;;;4434211;32;319197;-81
2023/08/22 06:42:56;;;;;;;16.27;10.90;;;;;;;;;;4444510;32;319913;-82
2023/08/22 06:45:23;;;;;;;12.32;10.05;;;;;;;;;;4427311;32;319462;-82
2023/08/22 06:47:49;;;;;;;13.15;11.63;;;;;;;;;;4445300;32;319822;-81
2023/08/22 06:50:17;;;;;;;12.15;10.77;;;;;;;;;;4434559;32;319836;-82
2023/08/22 06:52:44;;;;;;;13.50;10.80;;;;;;;;;;4444775;32;319495;-82
2023/08/22 06:55:11;;;;;;;15.23;11.55;;;;;;;;;;4434369;32;338715;-81
2023/08/22 06:57:39;;;;;;;18.50;12.10;;;;;;;;;;4445273;32;318691;-81
2023/08/22 07:00:13;;;;;;;13.65;11.63;;;;;;;;;;4444242;32;318958;-82
2023/08/22 07:02:41;;;;;;;18.45;12.60;;;;;;;;;;4432248;32;417208;-80
2023/08/22 07:05:08;;;;;;;13.98;10.75;;;;;;;;;;4444069;32;319759;-81
2023/08/22 07:07:36;;;;;;;13.70;12.20;;;;;;;;;;4435354;32;319668;-82
2023/08/22 07:10:05;;;;;;;13.60;11.43;;;;;;;;;;4444278;32;339257;-82
2023/08/22 07:12:31;;;;;;;14.25;11.68;;;;;;;;;;4433785;32;319056;-81
2023/08/22 07:14:58;;;;;;;11.55;9.98;;;;;;;;;;4444173;32;319757;-81
2023/08/22 07:17:26;;;;;;;18.00;10.60;;;;;;;;;;4434818;32;317793;-81
2023/08/22 07:19:53;;;;;;;22.08;11.75;;;;;;;;;;4444673;32;319671;-82
2023/08/22 07:22:20;;;;;;;16.17;10.93;;;;;;;;;;4434992;32;318896;-81
2023/08/22 07:24:48;;;;;;;18.12;11.40;;;;;;;;;;4443338;32;319307;-81
2023/08/22 07:27:15;;;;;;;17.90;10.57;;;;;;;;;;4435097;32;319717;-81
2023/08/22 07:29:42;;;;;;;14.32;10.00;;;;;;;;;;4445130;32;319256;-81
2023/08/22 07:32:09;;;;;;;18.15;10.73;;;;;;;;;;4445202;32;319243;-82
2023/08/22 07:34:37;;;;;;;13.98;9.68;;;;;;;;;;4431745;32;418418;-82
2023/08/22 07:37:05;;;;;;;14.93;9.25;;;;;;;;;;4444846;32;318858;-82
2023/08/22 07:39:32;;;;;;;11.32;9.60;;;;;;;;;;4434471;32;318204;-82
2023/08/22 07:42:00;;;;;;;15.13;10.05;;;;;;;;;;4443937;32;318581;-82
2023/08/22 07:44:26;;;;;;;14.20;10.27;;;;;;;;;;4433842;32;319395;-81
2023/08/22 07:46:53;;;;;;;19.37;9.95;;;;;;;;;;4443685;32;318796;-81
2023/08/22 07:49:20;;;;;;;15.70;10.50;;;;;;;;;;4433576;32;318683;-81
2023/08/22 07:51:47;;;;;;;19.02;10.02;;;;;;;;;;4444373;32;319463;-81
2023/08/22 07:54:15;;;;;;;13.55;9.57;;;;;;;;;;4433989;32;319187;-81
2023/08/22 07:56:42;;;;;;;10.43;9.40;;;;;;;;;;4460057;32;318036;-81
2023/08/22 07:59:10;;;;;;;13.57;8.82;;;;;;;;;;4460518;32;317801;-82
2023/08/22 08:01:37;;;;;;;10.57;8.38;;;;;;;;;;4447667;32;418300;-82
2023/08/22 08:04:04;;;;;;;11.02;8.13;;;;;;;;;;4460304;32;318263;-82
2023/08/22 08:06:34;;;;;;;18.15;8.48;;;;;;;;;;4450316;32;318314;-82
2023/08/22 08:09:01;;;;;;;11.43;8.27;;;;;;;;;;4458755;32;318749;-81
2023/08/22 08:11:29;;;;;;;15.02;8.25;;;;;;;;;;4449236;32;318213;-81
2023/08/22 08:13:56;;;;;;;9.20;7.82;;;;;;;;;;4448311;32;318353;-82
2023/08/22 08:16:24;;;;;;;10.13;8.13;;;;;;;;;;4433420;32;317288;-82
2023/08/22 08:18:52;;;;;;;11.98;8.20;;;;;;;;;;4444331;32;318287;-82
2023/08/22 08:21:19;;;;;;;16.48;8.27;;;;;;;;;;4433140;32;318693;-81
2023/08/22 08:23:46;;;;;;;8.65;7.25;;;;;;;;;;4443853;32;318481;-81
2023/08/22 08:26:14;;;;;;;10.25;7.03;;;;;;;;;;4434443;32;317284;-82
2023/08/22 08:28:40;;;;;;;7.85;6.85;;;;;;;;;;4444919;32;318380;-81
2023/08/22 08:31:07;;;;;;;8.93;7.40;;;;;;;;;;4444019;32;317368;-80
2023/08/22 08:33:35;;;;;;;9.65;7.37;;;;;;;;;;4434604;32;316817;-80
2023/08/22 08:36:03;;;;;;;7.18;6.47;;;;;;;;;;4444243;32;324125;-81
2023/08/22 08:38:30;;;;;;;13.85;7.00;;;;;;;;;;4432597;32;317107;-80
2023/08/22 08:40:59;;;;;;;8.63;6.90;;;;;;;;;;4443991;32;330202;-81
2023/08/22 08:43:26;;;;;;;18.70;6.55;;;;;;;;;;4434413;32;317780;-81
2023/08/22 08:45:53;;;;;;;6.62;5.93;;;;;;;;;;4444527;32;318247;-81
2023/08/22 08:48:22;;;;;;;10.95;6.10;;;;;;;;;;4435898;32;317398;-81
2023/08/22 08:50:51;;;;;;;8.98;5.20;;;;;;;;;;4447463;32;318462;-81
2023/08/22 08:53:18;;;;;;;11.20;6.00;;;;;;;;;;4436170;32;317442;-80
2023/08/22 08:55:46;;;;;;;11.45;5.90;;;;;;;;;;4446940;32;318273;-80
2023/08/22 08:58:13;;;;;;;8.02;5.55;;;;;;;;;;4435962;32;318352;-81
2023/08/22 09:00:40;;;;;;;10.32;7.35;;;;;;;;;;4445917;32;317349;-79
2023/08/22 09:03:07;;;;;;;8.82;7.40;;;;;;;;;;4447285;32;318363;-80
2023/08/22 09:05:33;;;;;;;8.98;6.50;;;;;;;;;;4435728;32;317103;-80
2023/08/22 09:08:16;;;;;;;12.88;6.10;;;;;;;;;;4445566;32;317324;-81
2023/08/22 09:10:43;;;;;;;12.40;6.00;;;;;;;;;;4433571;32;418666;-81
2023/08/22 09:13:10;;;;;;;9.18;6.22;;;;;;;;;;4446889;32;318414;-81
2023/08/22 09:15:36;;;;;;;8.57;5.55;;;;;;;;;;4432982;32;418483;-81
2023/08/22 09:18:03;;;;;;;11.45;5.95;;;;;;;;;;4447140;32;316487;-81
2023/08/22 09:20:30;;;;;;;7.55;5.00;;;;;;;;;;4436885;32;317696;-81
2023/08/22 09:22:57;;;;;;;12.18;5.60;;;;;;;;;;4446736;32;317206;-82
2023/08/22 09:25:36;;;;;;;10.77;5.53;;;;;;;;;;4435520;32;318448;-82
2023/08/22 09:28:03;;;;;;;14.93;6.65;;;;;;;;;;4445931;32;318167;-81
2023/08/22 09:30:30;;;;;;;7.03;5.37;;;;;;;;;;4434511;32;358060;-82
2023/08/22 09:33:00;;;;;;;10.90;5.00;;;;;;;;;;4447447;32;317283;-81
2023/08/22 09:35:30;;;;;;;8.98;6.05;;;;;;;;;;4436469;32;318538;-82
2023/08/22 09:38:06;;;;;;;11.15;5.57;;;;;;;;;;4446324;32;317441;-81
2023/08/22 09:40:34;;;;;;;15.63;5.80;;;;;;;;;;4434942;32;318412;-81
2023/08/22 09:43:01;;;;;;;7.70;5.18;;;;;;;;;;4446504;32;318410;-81
2023/08/22 09:45:31;;;;;;;7.55;5.28;;;;;;;;;;4435308;32;317476;-82
2023/08/22 09:48:01;;;;;;;11.18;6.28;;;;;;;;;;4445106;32;317421;-82
2023/08/22 09:50:35;;;;;;;12.60;6.12;;;;;;;;;;4436474;32;318252;-82
2023/08/22 09:53:02;;;;;;;12.32;5.95;;;;;;;;;;4444945;32;318222;-82
2023/08/22 09:55:30;;;;;;;7.35;5.22;;;;;;;;;;4443650;32;318660;-81
2023/08/22 09:57:58;;;;;;;9.63;5.22;;;;;;;;;;4460600;32;317430;-82
2023/08/22 10:00:30;;;;;;;8.82;5.28;;;;;;;;;;4451284;32;317197;-81
2023/08/22 10:03:01;;;;;;;10.48;5.25;;;;;;;;;;4461976;32;317331;-82
2023/08/22 10:05:28;;;;;;;10.80;5.07;;;;;;;;;;4446187;32;318374;-84
2023/08/22 10:07:54;;;;;;;19.17;5.60;;;;;;;;;;4444915;32;318888;-82
2023/08/22 10:10:23;;;;;;;15.33;5.07;;;;;;;;;;4426451;32;322279;-81
2023/08/22 10:12:50;;;;;;;9.70;5.07;;;;;;;;;;4445551;32;318408;-81
2023/08/22 10:15:18;;;;;;;12.32;4.80;;;;;;;;;;4436124;32;317355;-82
2023/08/22 10:17:46;;;;;;;6.10;4.95;;;;;;;;;;4445996;32;318098;-80
2023/08/22 10:20:15;;;;;;;11.10;5.00;;;;;;;;;;4434977;32;316781;-81
2023/08/22 10:22:42;;;;;;;12.10;5.40;;;;;;;;;;4445742;32;318279;-81
2023/08/22 10:25:10;;;;;;;9.07;5.57;;;;;;;;;;4445125;32;317706;-81
2023/08/22 10:27:40;;;;;;;13.93;5.55;;;;;;;;;;4432960;32;415558;-80
2023/08/22 10:30:21;;;;;;;9.02;4.72;;;;;;;;;;4444529;32;317650;-80
2023/08/22 10:33:05;;;;;;;14.27;5.47;;;;;;;;;;4432851;32;418005;-80
2023/08/22 10:35:32;;;;;;;14.82;5.87;;;;;;;;;;4435620;32;318309;-80
2023/08/22 10:37:59;;;;;;;9.93;5.95;;;;;;;;;;4445532;32;318399;-81
2023/08/22 10:40:28;;;;;;;7.80;5.78;;;;;;;;;;4434232;32;317357;-81
2023/08/22 10:43:09;;;;;;;7.82;5.15;;;;;;;;;;4445849;32;317018;-81
2023/08/22 10:45:41;;;;;;;10.43;5.32;;;;;;;;;;4431725;32;415991;-81
2023/08/22 10:48:11;;;;;;;10.40;5.05;;;;;;;;;;4445315;32;318418;-82
2023/08/22 10:50:40;;;;;;;9.07;5.22;;;;;;;;;;4431824;32;418727;-81
2023/08/22 10:53:19;;;;;;;9.95;5.47;;;;;;;;;;4445770;32;317253;-81
2023/08/22 10:55:46;;;;;;;17.80;5.57;;;;;;;;;;4432897;32;417835;-81
2023/08/22 10:58:41;;;;;;;9.15;5.78;;;;;;;;;;4435278;32;318270;-82
2023/08/22 11:01:13;;;;;;;7.28;4.95;;;;;;;;;;4444234;32;317232;-81
2023/08/22 11:03:40;;;;;;;11.02;4.70;;;;;;;;;;4431366;32;418997;-81
2023/08/22 11:06:15;;;;;;;7.97;5.40;;;;;;;;;;4445758;32;317610;-81
2023/08/22 11:08:43;;;;;;;9.40;6.12;;;;;;;;;;4431493;32;417981;-81
2023/08/22 11:11:13;;;;;;;7.85;4.78;;;;;;;;;;4444943;32;317241;-82
2023/08/22 11:13:41;;;;;;;10.00;5.15;;;;;;;;;;4432216;32;416308;-82
2023/08/22 11:16:12;;;;;;;7.57;4.87;;;;;;;;;;4444968;32;318128;-82
2023/08/22 11:18:40;;;;;;;8.75;5.35;;;;;;;;;;4430966;32;417762;-82
2023/08/22 11:21:07;;;;;;;10.15;5.82;;;;;;;;;;4443821;32;317002;-82
2023/08/22 11:23:35;;;;;;;10.88;5.30;;;;;;;;;;4434879;32;318814;-81
2023/08/22 11:26:02;;;;;;;6.00;5.37;;;;;;;;;;4444153;32;318239;-81
2023/08/22 11:28:33;;;;;;;9.02;5.00;;;;;;;;;;4433976;32;317390;-80
2023/08/22 11:31:00;;;;;;;8.95;5.22;;;;;;;;;;4444248;32;317088;-81
2023/08/22 11:33:36;;;;;;;11.12;5.05;;;;;;;;;;4434746;32;317498;-81
2023/08/22 11:36:04;;;;;;;6.22;4.82;;;;;;;;;;4444537;32;318229;-81
2023/08/22 11:38:34;;;;;;;7.47;5.15;;;;;;;;;;4424670;32;317493;-82
2023/08/22 11:41:01;;;;;;;11.35;5.30;;;;;;;;;;4443694;32;317557;-82
2023/08/22 11:43:27;;;;;;;5.97;5.03;;;;;;;;;;4434470;32;324653;-83
2023/08/22 11:45:54;;;;;;;7.18;4.60;;;;;;;;;;4444959;32;316579;-82
2023/08/22 11:48:21;;;;;;;9.35;6.50;;;;;;;;;;4433361;32;317103;-82
2023/08/22 11:50:51;;;;;;;6.97;5.22;;;;;;;;;;4443345;32;317216;-81
2023/08/22 11:53:18;;;;;;;7.40;5.07;;;;;;;;;;4432975;32;317556;-80
2023/08/22 11:55:47;;;;;;;13.35;5.32;;;;;;;;;;4451375;32;348044;-81
2023/08/22 11:58:16;;;;;;;11.82;4.90;;;;;;;;;;4438014;32;342838;-81
2023/08/22 12:00:43;;;;;;;7.18;5.25;;;;;;;;;;4444188;32;318118;-81
2023/08/22 12:03:10;;;;;;;7.57;4.72;;;;;;;;;;4443228;32;316830;-81
2023/08/22 12:05:39;;;;;;;7.22;5.20;;;;;;;;;;4431373;32;418000;-83
2023/08/22 12:08:21;;;;;;;6.53;4.55;;;;;;;;;;4444205;32;317344;-82
2023/08/22 12:10:50;;;;;;;10.57;5.40;;;;;;;;;;4431444;32;417056;-82
2023/08/22 12:13:19;;;;;;;6.60;5.12;;;;;;;;;;4434323;32;318301;-82
2023/08/22 12:15:46;;;;;;;6.05;4.97;;;;;;;;;;4444421;32;317026;-81
2023/08/22 12:18:13;;;;;;;5.82;4.90;;;;;;;;;;4433847;32;317189;-82
2023/08/22 12:20:41;;;;;;;9.20;4.95;;;;;;;;;;4444208;32;316929;-81
2023/08/22 12:23:09;;;;;;;6.57;4.62;;;;;;;;;;4448303;32;317040;-81
2023/08/22 12:25:38;;;;;;;8.93;4.78;;;;;;;;;;4436221;32;417939;-80
2023/08/22 12:28:06;;;;;;;15.00;4.82;;;;;;;;;;4449552;32;316914;-81
2023/08/22 12:30:35;;;;;;;9.18;4.87;;;;;;;;;;4439432;32;318223;-81
2023/08/22 12:33:02;;;;;;;7.60;4.50;;;;;;;;;;4447799;32;324671;-81
2023/08/22 12:35:30;;;;;;;6.07;4.80;;;;;;;;;;4439459;32;316758;-81
2023/08/22 12:37:56;;;;;;;9.02;4.65;;;;;;;;;;4449312;32;316302;-82
2023/08/22 12:40:23;;;;;;;8.20;4.32;;;;;;;;;;4439273;32;317198;-81
2023/08/22 12:42:52;;;;;;;12.10;4.37;;;;;;;;;;4448837;32;316742;-82
2023/08/22 12:45:19;;;;;;;6.30;4.90;;;;;;;;;;4439108;32;322190;-82
2023/08/22 12:47:48;;;;;;;7.25;4.15;;;;;;;;;;4448905;32;317163;-82
2023/08/22 12:50:16;;;;;;;7.85;5.07;;;;;;;;;;4439972;32;317428;-82
2023/08/22 12:52:43;;;;;;;8.75;4.97;;;;;;;;;;4448127;32;350394;-82
2023/08/22 12:55:09;;;;;;;6.70;4.53;;;;;;;;;;4448970;32;317204;-82
2023/08/22 12:57:37;;;;;;;8.00;4.78;;;;;;;;;;4436099;32;416763;-82
2023/08/22 13:00:08;;;;;;;14.00;5.05;;;;;;;;;;4448372;32;317057;-82
2023/08/22 13:02:36;;;;;;;9.50;4.95;;;;;;;;;;4438224;32;318393;-82
2023/08/22 13:05:03;;;;;;;21.10;4.78;;;;;;;;;;4449464;32;317299;-82
2023/08/22 13:07:30;;;;;;;12.37;4.62;;;;;;;;;;4437559;32;318351;-82
2023/08/22 13:09:57;;;;;;;5.50;4.10;;;;;;;;;;4448038;32;318074;-82
2023/08/22 13:12:24;;;;;;;8.75;4.57;;;;;;;;;;4439091;32;317308;-82
2023/08/22 13:14:53;;;;;;;8.35;4.35;;;;;;;;;;4448971;32;316704;-82
2023/08/22 13:17:23;;;;;;;10.23;4.68;;;;;;;;;;4439146;32;317244;-82
2023/08/22 13:19:49;;;;;;;8.52;4.65;;;;;;;;;;4447576;32;317872;-82
2023/08/22 13:22:19;;;;;;;11.65;4.68;;;;;;;;;;4438690;32;317586;-82
2023/08/22 13:24:46;;;;;;;7.25;4.82;;;;;;;;;;4447344;32;333534;-82
2023/08/22 13:27:12;;;;;;;8.95;4.10;;;;;;;;;;4423945;32;340164;-82
2023/08/22 13:29:39;;;;;;;4.32;3.83;;;;;;;;;;4428791;32;317524;-83
2023/08/22 13:32:06;;;;;;;6.65;4.28;;;;;;;;;;4448936;32;317523;-82
2023/08/22 13:34:34;;;;;;;10.80;5.05;;;;;;;;;;4436755;32;317366;-82
2023/08/22 13:37:01;;;;;;;7.43;3.92;;;;;;;;;;4446083;32;318382;-81
2023/08/22 13:39:28;;;;;;;9.63;4.57;;;;;;;;;;4435436;32;317382;-82
2023/08/22 13:41:55;;;;;;;6.87;4.45;;;;;;;;;;4445084;32;317078;-81
2023/08/22 13:44:21;;;;;;;6.87;4.62;;;;;;;;;;4436177;32;317342;-81
2023/08/22 13:46:49;;;;;;;6.72;4.43;;;;;;;;;;4446266;32;317415;-81
2023/08/22 13:49:16;;;;;;;7.50;4.32;;;;;;;;;;4435986;32;317153;-81
2023/08/22 13:51:44;;;;;;;5.93;4.32;;;;;;;;;;4444485;32;317256;-81
2023/08/22 13:54:11;;;;;;;7.95;4.70;;;;;;;;;;4436416;32;317274;-82
2023/08/22 13:56:38;;;;;;;14.80;5.03;;;;;;;;;;4445996;32;317305;-81
2023/08/22 13:59:05;;;;;;;7.40;4.40;;;;;;;;;;4444485;32;318228;-81
2023/08/22 14:01:31;;;;;;;19.42;5.72;;;;;;;;;;4435764;32;317473;-81
2023/08/22 14:03:59;;;;;;;10.07;4.75;;;;;;;;;;4445956;32;318104;-81
2023/08/22 14:06:26;;;;;;;12.57;5.13;;;;;;;;;;4434528;32;320829;-83
2023/08/22 14:08:54;;;;;;;9.60;4.37;;;;;;;;;;4445874;32;318056;-82
2023/08/22 14:11:21;;;;;;;10.73;4.62;;;;;;;;;;4436301;32;317516;-82
2023/08/22 14:13:48;;;;;;;10.65;5.00;;;;;;;;;;4445483;32;318103;-82
2023/08/22 14:16:14;;;;;;;8.15;4.72;;;;;;;;;;4435888;32;318171;-82
2023/08/22 14:18:41;;;;;;;12.30;5.57;;;;;;;;;;4445205;32;316861;-82
2023/08/22 14:21:08;;;;;;;6.22;4.82;;;;;;;;;;4443986;32;318316;-81
2023/08/22 14:23:35;;;;;;;6.25;5.10;;;;;;;;;;4435454;32;317227;-81